createdAt,value
2022-08-14T00:02:01.401Z,53.54
2022-08-14T00:04:34.932Z,53.62
2022-08-14T00:07:14.166Z,54.06
2022-08-14T00:10:02.598Z,53.86
2022-08-14T00:12:44.015Z,53.62
2022-08-14T00:15:24.282Z,54.52
2022-08-14T00:17:53.375Z,54.32
2022-08-14T00:20:31.160Z,53.84
2022-08-14T00:23:12.333Z,53.71
2022-08-14T00:25:59.052Z,53.97
2022-08-14T00:28:35.663Z,53.69
2022-08-14T00:31:03.398Z,53.63
2022-08-14T00:33:52.526Z,53.96
2022-08-14T00:36:36.593Z,53.60
2022-08-14T00:39:06.613Z,53.83
2022-08-14T00:41:38.802Z,54.32
2022-08-14T00:44:06.609Z,54.13
2022-08-14T00:46:33.703Z,54.42
2022-08-14T00:49:00.932Z,54.75
2022-08-14T00:51:38.080Z,54.76
2022-08-14T00:54:11.012Z,55.13
2022-08-14T00:56:44.787Z,55.35
2022-08-14T00:59:11.876Z,55.63
2022-08-14T01:01:44.341Z,55.37
2022-08-14T01:04:51.648Z,55.78
2022-08-14T01:06:59.066Z,55.84
2022-08-14T01:09:26.639Z,56.10
2022-08-14T01:12:02.769Z,56.22
2022-08-14T01:14:30.713Z,56.26
2022-08-14T01:16:57.849Z,56.50
2022-08-14T01:19:51.002Z,56.35
2022-08-14T01:22:20.722Z,56.35
2022-08-14T01:24:53.484Z,56.27
2022-08-14T01:27:24.207Z,55.71
2022-08-14T01:30:03.201Z,55.72
2022-08-14T01:32:37.468Z,55.56
2022-08-14T01:35:18.699Z,55.75
2022-08-14T01:37:56.459Z,55.75
2022-08-14T01:40:33.069Z,55.56
2022-08-14T01:43:07.819Z,55.18
2022-08-14T01:45:40.780Z,54.89
2022-08-14T01:48:13.481Z,54.88
2022-08-14T01:50:42.318Z,54.97
2022-08-14T01:53:10.484Z,54.98
2022-08-14T01:55:40.258Z,54.92
2022-08-14T01:58:19.526Z,54.46
2022-08-14T02:00:55.438Z,54.54
2022-08-14T02:03:24.523Z,54.57
2022-08-14T02:06:03.485Z,54.29
2022-08-14T02:08:34.715Z,54.80
2022-08-14T02:11:17.177Z,55.01
2022-08-14T02:13:56.662Z,54.67
2022-08-14T02:16:26.385Z,55.00
2022-08-14T02:19:01.084Z,55.77
2022-08-14T02:21:31.757Z,55.93
2022-08-14T02:24:38.879Z,56.05
2022-08-14T02:28:23.171Z,56.09
2022-08-14T02:29:59.251Z,56.17
2022-08-14T02:32:30.393Z,56.35
2022-08-14T02:35:10.459Z,56.53
2022-08-14T02:37:47.179Z,56.33
2022-08-14T02:40:18.372Z,56.77
2022-08-14T02:42:54.876Z,56.50
2022-08-14T02:45:38.234Z,56.52
2022-08-14T02:49:04.567Z,56.81
2022-08-14T02:51:03.657Z,57.33
2022-08-14T02:53:31.591Z,57.50
2022-08-14T02:56:03.347Z,57.35
2022-08-14T02:58:50.615Z,57.55
2022-08-14T03:01:22.113Z,57.67
2022-08-14T03:03:51.604Z,57.48
2022-08-14T03:06:35.013Z,57.46
2022-08-14T03:09:13.034Z,57.42
2022-08-14T03:11:44.640Z,57.51
2022-08-14T03:14:12.495Z,57.65
2022-08-14T03:16:45.469Z,57.42
2022-08-14T03:19:16.269Z,57.39
2022-08-14T03:21:46.485Z,57.29
2022-08-14T03:24:23.278Z,57.23
2022-08-14T03:26:56.086Z,57.29
2022-08-14T03:29:26.432Z,57.93
2022-08-14T03:31:53.707Z,57.88
2022-08-14T03:34:24.535Z,58.07
2022-08-14T03:37:51.594Z,58.24
2022-08-14T03:39:58.998Z,58.52
2022-08-14T03:42:31.102Z,58.89
2022-08-14T03:45:25.560Z,59.38
2022-08-14T03:47:56.034Z,59.51
2022-08-14T03:50:30.802Z,59.66
2022-08-14T03:53:03.221Z,59.86
2022-08-14T03:55:30.757Z,59.73
2022-08-14T03:57:58.335Z,59.84
2022-08-14T04:00:42.808Z,59.64
2022-08-14T04:03:16.700Z,59.48
2022-08-14T04:05:49.099Z,59.25
2022-08-14T04:08:22.938Z,59.36
2022-08-14T04:10:57.652Z,59.33
2022-08-14T04:13:27.951Z,59.60
2022-08-14T04:16:02.302Z,59.67
2022-08-14T04:18:33.968Z,59.40
2022-08-14T04:21:01.230Z,59.25
2022-08-14T04:23:29.775Z,59.67
2022-08-14T04:26:01.869Z,59.36
2022-08-14T04:29:05.331Z,59.30
2022-08-14T04:32:56.465Z,59.30
2022-08-14T04:34:06.353Z,59.29
2022-08-14T04:36:54.616Z,59.16
2022-08-14T04:39:46.249Z,58.99
2022-08-14T04:42:32.090Z,59.42
2022-08-14T04:45:01.084Z,59.41
2022-08-14T04:47:48.273Z,59.30
2022-08-14T04:50:31.337Z,58.93
2022-08-14T04:53:07.099Z,59.08
2022-08-14T04:55:37.803Z,59.16
2022-08-14T04:58:05.486Z,59.35
2022-08-14T05:00:33.445Z,59.64
2022-08-14T05:03:03.205Z,59.05
2022-08-14T05:05:34.539Z,58.87
2022-08-14T05:08:32.332Z,58.83
2022-08-14T05:11:03.273Z,58.75
2022-08-14T05:13:47.504Z,58.54
2022-08-14T05:16:22.701Z,58.74
2022-08-14T05:19:18.127Z,58.78
2022-08-14T05:22:00.464Z,58.87
2022-08-14T05:24:24.797Z,58.25
2022-08-14T05:26:51.995Z,58.70
2022-08-14T05:29:22.686Z,58.39
2022-08-14T05:31:49.512Z,58.15
2022-08-14T05:34:23.810Z,58.25
2022-08-14T05:37:01.906Z,58.19
2022-08-14T05:39:29.893Z,58.20
2022-08-14T05:41:56.753Z,57.64
2022-08-14T05:44:29.226Z,57.62
2022-08-14T05:46:56.375Z,57.21
2022-08-14T05:49:32.785Z,56.63
2022-08-14T05:52:03.795Z,56.36
2022-08-14T05:54:36.886Z,56.41
2022-08-14T05:57:04.968Z,56.34
2022-08-14T05:59:38.741Z,56.44
2022-08-14T06:02:11.257Z,56.31
2022-08-14T06:04:39.041Z,56.40
2022-08-14T06:07:06.705Z,56.74
2022-08-14T06:09:36.088Z,56.59
2022-08-14T06:12:10.432Z,56.37
2022-08-14T06:14:39.232Z,55.86
2022-08-14T06:17:07.459Z,55.43
2022-08-14T06:19:34.300Z,55.25
2022-08-14T06:22:06.676Z,55.01
2022-08-14T06:24:35.779Z,54.04
2022-08-14T06:27:09.968Z,54.25
2022-08-14T06:29:38.618Z,53.53
2022-08-14T06:32:37.574Z,53.38
2022-08-14T06:35:12.647Z,53.50
2022-08-14T06:37:51.181Z,52.97
2022-08-14T06:40:34.390Z,52.06
2022-08-14T06:43:07.096Z,51.77
2022-08-14T06:45:38.922Z,50.88
2022-08-14T06:48:19.043Z,50.77
2022-08-14T06:50:48.559Z,49.77
2022-08-14T06:53:19.907Z,49.39
2022-08-14T06:55:57.967Z,49.13
2022-08-14T06:58:30.846Z,49.35
2022-08-14T07:01:23.065Z,49.04
2022-08-14T07:04:22.824Z,48.71
2022-08-14T07:06:54.847Z,48.40
2022-08-14T07:09:44.247Z,48.48
2022-08-14T07:12:35.999Z,48.15
2022-08-14T07:15:13.764Z,47.59
2022-08-14T07:17:49.827Z,47.33
2022-08-14T07:20:30.595Z,47.30
2022-08-14T07:23:11.232Z,47.71
2022-08-14T07:25:48.596Z,47.59
2022-08-14T07:28:23.826Z,47.42
2022-08-14T07:30:56.279Z,46.27
2022-08-14T07:33:29.509Z,45.69
2022-08-14T07:36:01.049Z,45.21
2022-08-14T07:38:33.985Z,44.99
2022-08-14T07:41:11.778Z,44.99
2022-08-14T07:43:44.041Z,45.05
2022-08-14T07:46:14.789Z,45.31
2022-08-14T07:48:48.621Z,44.98
2022-08-14T07:51:15.300Z,44.71
2022-08-14T07:53:42.381Z,44.87
2022-08-14T07:56:36.780Z,45.24
2022-08-14T07:58:58.895Z,44.91
2022-08-14T08:01:27.447Z,45.00
2022-08-14T08:04:00.053Z,44.83
2022-08-14T08:06:28.300Z,44.75
2022-08-14T08:09:02.897Z,44.51
2022-08-14T08:11:37.473Z,44.21
2022-08-14T08:14:10.309Z,44.01
2022-08-14T08:16:38.309Z,43.68
2022-08-14T08:19:13.948Z,43.67
2022-08-14T08:21:43.593Z,43.81
2022-08-14T08:24:10.830Z,44.14
2022-08-14T08:26:39.252Z,44.07
2022-08-14T08:29:07.162Z,43.97
2022-08-14T08:31:52.516Z,44.07
2022-08-14T08:34:23.480Z,43.70
2022-08-14T08:36:50.551Z,43.82
2022-08-14T08:39:30.829Z,43.63
2022-08-14T08:42:04.280Z,43.62
2022-08-14T08:44:34.532Z,43.89
2022-08-14T08:47:06.639Z,42.74
2022-08-14T08:49:52.993Z,42.25
2022-08-14T08:52:31.733Z,42.46
2022-08-14T08:55:00.740Z,41.26
2022-08-14T08:57:35.909Z,41.67
2022-08-14T09:00:24.585Z,41.12
2022-08-14T09:02:57.360Z,40.57
2022-08-14T09:05:24.552Z,39.61
2022-08-14T09:07:52.862Z,39.57
2022-08-14T09:10:23.778Z,40.04
2022-08-14T09:12:56.179Z,39.36
2022-08-14T09:15:24.212Z,39.56
2022-08-14T09:17:51.963Z,40.17
2022-08-14T09:20:25.959Z,39.64
2022-08-14T09:22:56.437Z,39.14
2022-08-14T09:26:00.196Z,38.92
2022-08-14T09:28:10.128Z,38.74
2022-08-14T09:30:41.205Z,38.85
2022-08-14T09:33:22.699Z,38.66
2022-08-14T09:35:58.234Z,38.67
2022-08-14T09:38:50.991Z,39.08
2022-08-14T09:42:20.221Z,39.55
2022-08-14T09:44:51.827Z,39.22
2022-08-14T09:47:19.290Z,39.68
2022-08-14T09:49:52.989Z,38.96
2022-08-14T09:52:23.834Z,39.45
2022-08-14T09:55:00.377Z,39.38
2022-08-14T09:57:31.019Z,38.73
2022-08-14T09:59:58.948Z,38.48
2022-08-14T10:02:32.227Z,38.67
2022-08-14T10:05:04.005Z,37.82
2022-08-14T10:07:35.641Z,38.07
2022-08-14T10:10:23.316Z,39.04
2022-08-14T10:12:54.858Z,37.47
2022-08-14T10:15:30.044Z,38.50
2022-08-14T10:18:17.332Z,38.86
2022-08-14T10:20:58.350Z,38.27
2022-08-14T10:23:27.749Z,37.42
2022-08-14T10:26:07.701Z,37.33
2022-08-14T10:29:18.821Z,37.20
2022-08-14T10:31:40.290Z,37.49
2022-08-14T10:34:19.031Z,37.60
2022-08-14T10:36:50.163Z,36.43
2022-08-14T10:39:27.477Z,36.04
2022-08-14T10:42:16.651Z,35.09
2022-08-14T10:44:49.155Z,35.84
2022-08-14T10:47:39.281Z,35.35
2022-08-14T10:50:14.802Z,35.73
2022-08-14T10:52:46.539Z,35.32
2022-08-14T10:55:19.393Z,35.96
2022-08-14T10:57:57.009Z,36.37
2022-08-14T11:00:30.327Z,35.92
2022-08-14T11:03:11.043Z,35.40
2022-08-14T11:05:54.985Z,35.02
2022-08-14T11:08:33.803Z,34.38
2022-08-14T11:11:03.834Z,34.18
2022-08-14T11:13:31.770Z,34.64
2022-08-14T11:16:01.764Z,34.63
2022-08-14T11:18:35.788Z,34.40
2022-08-14T11:21:06.953Z,34.75
2022-08-14T11:23:43.672Z,35.15
2022-08-14T11:26:12.421Z,34.93
2022-08-14T11:28:47.543Z,35.17
2022-08-14T11:31:19.902Z,34.65
2022-08-14T11:33:57.861Z,34.71
2022-08-14T11:37:02.478Z,34.83
2022-08-14T11:39:34.924Z,34.25
2022-08-14T11:42:07.676Z,34.73
2022-08-14T11:45:00.809Z,34.23
2022-08-14T11:47:35.333Z,33.98
2022-08-14T11:50:25.001Z,33.45
2022-08-14T11:53:04.430Z,33.47
2022-08-14T11:55:38.106Z,33.76
2022-08-14T11:58:11.227Z,34.15
2022-08-14T12:00:53.877Z,33.89
2022-08-14T12:03:27.223Z,34.19
2022-08-14T12:06:29.397Z,33.78
2022-08-14T12:09:00.276Z,34.04
2022-08-14T12:11:43.276Z,33.76
2022-08-14T12:14:30.605Z,33.84
2022-08-14T12:17:05.059Z,34.04
2022-08-14T12:19:33.830Z,33.98
2022-08-14T12:22:02.533Z,34.43
2022-08-14T12:24:36.877Z,34.28
2022-08-14T12:27:07.187Z,34.02
2022-08-14T12:29:34.906Z,33.85
2022-08-14T12:32:08.820Z,33.60
2022-08-14T12:34:45.021Z,33.73
2022-08-14T12:37:12.142Z,34.03
2022-08-14T12:39:40.058Z,33.96
2022-08-14T12:42:08.072Z,33.67
2022-08-14T12:44:39.724Z,34.06
2022-08-14T12:47:16.893Z,33.90
2022-08-14T12:49:57.865Z,33.75
2022-08-14T12:52:36.238Z,33.60
2022-08-14T12:55:18.231Z,33.71
2022-08-14T12:57:47.005Z,33.82
2022-08-14T13:00:25.469Z,33.90
2022-08-14T13:02:55.721Z,34.03
2022-08-14T13:05:31.706Z,33.64
2022-08-14T13:08:03.642Z,33.88
2022-08-14T13:10:52.035Z,33.67
2022-08-14T13:13:23.254Z,33.71
2022-08-14T13:15:57.469Z,33.40
2022-08-14T13:18:30.374Z,33.21
2022-08-14T13:21:02.191Z,33.31
2022-08-14T13:23:34.431Z,33.39
2022-08-14T13:26:03.778Z,33.31
2022-08-14T13:28:33.687Z,32.66
2022-08-14T13:31:11.228Z,33.01
2022-08-14T13:33:40.795Z,32.92
2022-08-14T13:36:09.346Z,32.98
2022-08-14T13:38:36.935Z,32.90
2022-08-14T13:41:04.037Z,32.38
2022-08-14T13:43:36.966Z,32.13
2022-08-14T13:46:18.433Z,32.83
2022-08-14T13:48:45.817Z,32.91
2022-08-14T13:51:16.416Z,33.23
2022-08-14T13:54:06.844Z,33.19
2022-08-14T13:56:40.776Z,32.90
2022-08-14T13:59:09.877Z,33.04
2022-08-14T14:01:43.859Z,33.06
2022-08-14T14:04:18.982Z,33.12
2022-08-14T14:06:49.110Z,33.38
2022-08-14T14:09:26.647Z,33.26
2022-08-14T14:12:04.061Z,33.61
2022-08-14T14:14:51.146Z,33.38
2022-08-14T14:17:24.407Z,33.63
2022-08-14T14:19:52.449Z,33.24
2022-08-14T14:22:35.730Z,33.72
2022-08-14T14:25:14.417Z,34.05
2022-08-14T14:27:49.054Z,34.16
2022-08-14T14:30:45.995Z,34.40
2022-08-14T14:33:28.947Z,34.53
2022-08-14T14:35:59.208Z,34.37
2022-08-14T14:38:30.736Z,34.45
2022-08-14T14:41:00.840Z,34.16
2022-08-14T14:43:28.966Z,33.92
2022-08-14T14:45:58.662Z,34.19
2022-08-14T14:48:29.414Z,34.13
2022-08-14T14:51:01.576Z,33.75
2022-08-14T14:53:39.265Z,34.12
2022-08-14T14:56:50.166Z,34.22
2022-08-14T14:58:56.808Z,34.34
2022-08-14T15:01:25.256Z,34.45
2022-08-14T15:03:55.452Z,34.32
2022-08-14T15:06:29.007Z,34.70
2022-08-14T15:08:59.983Z,34.99
2022-08-14T15:11:30.141Z,35.05
2022-08-14T15:13:57.288Z,35.29
2022-08-14T15:16:24.858Z,34.95
2022-08-14T15:18:51.646Z,35.47
2022-08-14T15:21:20.948Z,35.70
2022-08-14T15:23:48.157Z,35.92
2022-08-14T15:26:24.503Z,36.02
2022-08-14T15:29:05.861Z,35.01
2022-08-14T15:31:36.141Z,35.36
2022-08-14T15:34:43.268Z,35.42
2022-08-14T15:37:12.897Z,35.53
2022-08-14T15:39:44.362Z,35.74
2022-08-14T15:42:15.834Z,36.05
2022-08-14T15:44:56.781Z,35.03
2022-08-14T15:47:36.288Z,35.34
2022-08-14T15:50:09.637Z,35.75
2022-08-14T15:52:37.611Z,35.72
2022-08-14T15:55:12.829Z,35.74
2022-08-14T15:58:01.529Z,35.66
2022-08-14T16:00:49.715Z,35.72
2022-08-14T16:03:18.078Z,36.02
2022-08-14T16:05:52.232Z,35.93
2022-08-14T16:08:28.771Z,36.40
2022-08-14T16:11:08.248Z,36.27
2022-08-14T16:13:47.813Z,35.90
2022-08-14T16:16:49.812Z,35.99
2022-08-14T16:19:21.325Z,36.46
2022-08-14T16:22:01.769Z,36.55
2022-08-14T16:25:01.916Z,36.55
2022-08-14T16:27:40.974Z,36.44
2022-08-14T16:30:24.426Z,35.78
2022-08-14T16:32:59.281Z,36.03
2022-08-14T16:35:42.698Z,35.80
2022-08-14T16:38:29.440Z,35.98
2022-08-14T16:41:25.483Z,35.77
2022-08-14T16:44:13.844Z,34.63
2022-08-14T16:46:57.416Z,34.47
2022-08-14T16:49:50.490Z,34.49
2022-08-14T16:52:25.912Z,34.89
2022-08-14T16:55:03.724Z,34.50
2022-08-14T16:57:33.695Z,35.51
2022-08-14T17:00:00.944Z,35.47
2022-08-14T17:02:42.839Z,36.65
2022-08-14T17:05:17.822Z,36.59
2022-08-14T17:08:32.909Z,36.33
2022-08-14T17:11:09.907Z,36.04
2022-08-14T17:13:57.708Z,36.37
2022-08-14T17:16:26.972Z,36.49
2022-08-14T17:19:00.535Z,35.67
2022-08-14T17:21:37.236Z,36.00
2022-08-14T17:24:51.420Z,36.66
2022-08-14T17:27:04.062Z,37.68
2022-08-14T17:29:34.894Z,37.96
2022-08-14T17:32:21.884Z,37.85
2022-08-14T17:34:57.695Z,37.39
2022-08-14T17:40:30.792Z,37.49
2022-08-14T17:43:02.117Z,37.14
2022-08-14T17:45:41.501Z,37.93
2022-08-14T17:49:14.441Z,38.22
2022-08-14T17:51:14.188Z,37.90
2022-08-14T17:53:52.836Z,38.10
2022-08-14T17:56:21.217Z,38.77
2022-08-14T17:58:49.402Z,38.51
2022-08-14T18:01:23.683Z,38.94
2022-08-14T18:03:53.873Z,39.23
2022-08-14T18:06:40.081Z,39.42
2022-08-14T18:09:24.972Z,39.29
2022-08-14T18:12:09.479Z,39.80
2022-08-14T18:14:57.044Z,40.07
2022-08-14T18:17:26.553Z,40.52
2022-08-14T18:19:53.401Z,40.44
2022-08-14T18:22:32.347Z,40.57
2022-08-14T18:25:05.277Z,40.84
2022-08-14T18:27:49.586Z,41.41
2022-08-14T18:30:31.965Z,41.63
2022-08-14T18:33:16.921Z,42.13
2022-08-14T18:35:58.172Z,42.43
2022-08-14T18:38:45.794Z,42.59
2022-08-14T18:41:36.130Z,42.92
2022-08-14T18:44:03.466Z,43.30
2022-08-14T18:46:59.735Z,43.47
2022-08-14T18:49:16.737Z,44.04
2022-08-14T18:51:45.807Z,44.39
2022-08-14T18:54:32.925Z,44.81
2022-08-14T18:57:03.193Z,44.96
2022-08-14T18:59:36.217Z,45.32
2022-08-14T19:02:30.235Z,45.50
2022-08-14T19:05:02.431Z,46.00
2022-08-14T19:07:34.031Z,46.11
2022-08-14T19:10:10.215Z,45.98
2022-08-14T19:12:52.946Z,46.58
2022-08-14T19:15:28.816Z,46.73
2022-08-14T19:18:10.985Z,47.06
2022-08-14T19:20:53.300Z,47.02
2022-08-14T19:23:42.902Z,47.19
2022-08-14T19:26:35.933Z,47.70
2022-08-14T19:29:37.801Z,47.86
2022-08-14T19:32:40.758Z,47.58
2022-08-14T19:35:18.281Z,47.83
2022-08-14T19:37:56.178Z,47.83
2022-08-14T19:40:35.258Z,48.04
2022-08-14T19:43:06.400Z,48.44
2022-08-14T19:45:34.242Z,48.78
2022-08-14T19:48:02.922Z,48.32
2022-08-14T19:50:40.221Z,48.36
2022-08-14T19:53:16.922Z,48.37
2022-08-14T19:55:57.380Z,48.81
2022-08-14T19:58:54.925Z,49.25
2022-08-14T20:01:37.127Z,49.15
2022-08-14T20:04:46.807Z,49.64
2022-08-14T20:06:57.114Z,49.84
2022-08-14T20:11:11.008Z,49.41
2022-08-14T20:12:29.004Z,50.15
2022-08-14T20:15:10.224Z,50.22
2022-08-14T20:17:40.339Z,50.46
2022-08-14T20:20:31.616Z,50.55
2022-08-14T20:23:10.897Z,51.36
2022-08-14T20:25:45.434Z,51.25
2022-08-14T20:28:30.763Z,51.40
2022-08-14T20:31:17.815Z,51.69
2022-08-14T20:34:04.567Z,51.61
2022-08-14T20:36:36.956Z,51.87
2022-08-14T20:39:08.381Z,51.70
2022-08-14T20:41:35.081Z,51.95
2022-08-14T20:44:28.741Z,51.78
2022-08-14T20:47:03.700Z,51.80
2022-08-14T20:49:36.450Z,52.02
2022-08-14T20:52:18.752Z,52.28
2022-08-14T20:54:51.240Z,52.09
2022-08-14T20:57:20.189Z,52.34
2022-08-14T20:59:52.893Z,52.07
2022-08-14T21:02:28.548Z,52.07
2022-08-14T21:05:16.339Z,52.00
2022-08-14T21:07:51.194Z,52.38
2022-08-14T21:10:33.240Z,52.66
2022-08-14T21:14:09.051Z,52.78
2022-08-14T21:18:32.549Z,53.36
2022-08-14T21:21:04.623Z,53.22
2022-08-14T21:23:37.233Z,53.49
2022-08-14T21:26:52.401Z,53.27
2022-08-14T21:29:15.891Z,53.67
2022-08-14T21:31:55.177Z,53.77
2022-08-14T21:34:27.084Z,53.25
2022-08-14T21:39:24.714Z,53.06
2022-08-14T21:41:58.590Z,52.70
2022-08-14T21:44:43.313Z,52.92
2022-08-14T21:47:12.840Z,52.93
2022-08-14T21:49:48.035Z,53.13
2022-08-14T21:52:51.833Z,52.68
2022-08-14T21:55:10.346Z,52.97
2022-08-14T21:58:45.788Z,53.33
2022-08-14T22:00:36.602Z,53.66
2022-08-14T22:03:09.875Z,53.87
2022-08-14T22:05:41.363Z,53.53
2022-08-14T22:08:12.195Z,53.94
2022-08-14T22:10:42.489Z,53.65
2022-08-14T22:13:14.797Z,53.73
2022-08-14T22:15:49.450Z,53.96
2022-08-14T22:18:20.345Z,53.94
2022-08-14T22:20:53.379Z,53.78
2022-08-14T22:23:21.700Z,53.99
2022-08-14T22:25:51.185Z,54.12
2022-08-14T22:28:32.700Z,54.23
2022-08-14T22:31:02.857Z,54.29
2022-08-14T22:33:30.952Z,53.96
2022-08-14T22:36:00.339Z,54.33
2022-08-14T22:38:37.530Z,54.30
2022-08-14T22:41:27.925Z,54.46
2022-08-14T22:44:06.813Z,54.94
2022-08-14T22:46:34.781Z,54.69
2022-08-14T22:49:16.963Z,54.81
2022-08-14T22:51:51.244Z,54.74
2022-08-14T22:54:51.860Z,55.44
2022-08-14T22:57:06.495Z,55.52
2022-08-14T22:59:38.998Z,55.22
2022-08-14T23:02:30.184Z,55.70
2022-08-14T23:04:58.103Z,55.92
2022-08-14T23:08:58.657Z,56.45
2022-08-14T23:10:32.762Z,56.79
2022-08-14T23:13:02.551Z,57.28
2022-08-14T23:15:30.146Z,57.47
2022-08-14T23:17:57.684Z,58.06
2022-08-14T23:20:29.714Z,58.19
2022-08-14T23:22:57.042Z,58.15
2022-08-14T23:25:56.845Z,58.55
2022-08-14T23:28:33.659Z,58.47
2022-08-14T23:31:09.840Z,58.62
2022-08-14T23:33:42.028Z,58.45
2022-08-14T23:36:32.336Z,58.59
2022-08-14T23:39:10.539Z,58.78
2022-08-14T23:41:52.542Z,59.25
2022-08-14T23:44:23.575Z,59.55
2022-08-14T23:46:52.802Z,59.80
2022-08-14T23:49:24.690Z,59.93
2022-08-14T23:52:51.126Z,60.56
2022-08-14T23:54:48.006Z,60.73
2022-08-14T23:57:19.205Z,61.18
2022-08-14T23:59:54.652Z,61.23
